sensor_id;sensor_type;location;lat;lon;timestamp;P1;durP1;ratioP1;P2;durP2;ratioP2
76121;SDS011;70471;53.200;6.080;2023-06-19T00:00:13;4.88;;;3.72;;
76121;SDS011;70471;53.200;6.080;2023-06-19T00:05:06;5.03;;;3.75;;
76121;SDS011;70471;53.200;6.080;2023-06-19T00:09:58;5.70;;;4.65;;
76121;SDS011;70471;53.200;6.080;2023-06-19T00:14:51;6.43;;;3.97;;
76121;SDS011;70471;53.200;6.080;2023-06-19T00:19:43;5.03;;;4.05;;
76121;SDS011;70471;53.200;6.080;2023-06-19T00:24:34;4.93;;;4.05;;
76121;SDS011;70471;53.200;6.080;2023-06-19T00:29:26;5.07;;;3.65;;
76121;SDS011;70471;53.200;6.080;2023-06-19T00:34:19;4.60;;;3.70;;
76121;SDS011;70471;53.200;6.080;2023-06-19T00:39:10;4.60;;;4.20;;
76121;SDS011;70471;53.200;6.080;2023-06-19T00:44:02;4.53;;;3.50;;
76121;SDS011;70471;53.200;6.080;2023-06-19T00:48:54;4.55;;;3.83;;
76121;SDS011;70471;53.200;6.080;2023-06-19T00:53:47;4.57;;;3.50;;
76121;SDS011;70471;53.200;6.080;2023-06-19T00:58:39;4.22;;;3.75;;
76121;SDS011;70471;53.200;6.080;2023-06-19T01:03:30;4.78;;;3.80;;
76121;SDS011;70471;53.200;6.080;2023-06-19T01:08:37;5.15;;;3.95;;
76121;SDS011;70471;53.200;6.080;2023-06-19T01:13:43;4.20;;;3.78;;
76121;SDS011;70471;53.200;6.080;2023-06-19T01:18:36;4.03;;;3.63;;
76121;SDS011;70471;53.200;6.080;2023-06-19T01:23:30;5.30;;;3.70;;
76121;SDS011;70471;53.200;6.080;2023-06-19T01:28:21;4.00;;;3.55;;
76121;SDS011;70471;53.200;6.080;2023-06-19T01:33:15;4.03;;;3.55;;
76121;SDS011;70471;53.200;6.080;2023-06-19T01:38:09;4.25;;;3.70;;
76121;SDS011;70471;53.200;6.080;2023-06-19T01:43:03;4.18;;;3.63;;
76121;SDS011;70471;53.200;6.080;2023-06-19T01:47:56;4.13;;;3.70;;
76121;SDS011;70471;53.200;6.080;2023-06-19T01:52:48;3.60;;;3.30;;
76121;SDS011;70471;53.200;6.080;2023-06-19T01:57:40;4.32;;;3.45;;
76121;SDS011;70471;53.200;6.080;2023-06-19T02:02:33;4.93;;;3.83;;
76121;SDS011;70471;53.200;6.080;2023-06-19T02:07:24;4.20;;;3.00;;
76121;SDS011;70471;53.200;6.080;2023-06-19T02:12:16;4.05;;;3.65;;
76121;SDS011;70471;53.200;6.080;2023-06-19T02:17:07;4.53;;;3.60;;
76121;SDS011;70471;53.200;6.080;2023-06-19T02:22:00;4.30;;;3.40;;
76121;SDS011;70471;53.200;6.080;2023-06-19T02:26:51;4.32;;;3.67;;
76121;SDS011;70471;53.200;6.080;2023-06-19T02:31:43;3.90;;;3.20;;
76121;SDS011;70471;53.200;6.080;2023-06-19T02:36:35;4.43;;;3.53;;
76121;SDS011;70471;53.200;6.080;2023-06-19T02:41:28;4.75;;;3.42;;
76121;SDS011;70471;53.200;6.080;2023-06-19T02:46:19;4.18;;;3.42;;
76121;SDS011;70471;53.200;6.080;2023-06-19T02:51:11;6.28;;;3.78;;
76121;SDS011;70471;53.200;6.080;2023-06-19T02:56:03;3.90;;;3.50;;
76121;SDS011;70471;53.200;6.080;2023-06-19T03:00:56;4.07;;;3.55;;
76121;SDS011;70471;53.200;6.080;2023-06-19T03:05:47;4.30;;;3.88;;
76121;SDS011;70471;53.200;6.080;2023-06-19T03:10:39;4.03;;;3.20;;
76121;SDS011;70471;53.200;6.080;2023-06-19T03:15:30;4.13;;;3.58;;
76121;SDS011;70471;53.200;6.080;2023-06-19T03:20:23;4.60;;;3.78;;
76121;SDS011;70471;53.200;6.080;2023-06-19T03:25:15;4.32;;;3.45;;
76121;SDS011;70471;53.200;6.080;2023-06-19T03:30:10;4.90;;;3.47;;
76121;SDS011;70471;53.200;6.080;2023-06-19T03:35:03;6.75;;;4.15;;
76121;SDS011;70471;53.200;6.080;2023-06-19T03:39:57;5.22;;;4.53;;
76121;SDS011;70471;53.200;6.080;2023-06-19T03:44:48;6.68;;;4.32;;
76121;SDS011;70471;53.200;6.080;2023-06-19T03:49:39;6.65;;;4.90;;
76121;SDS011;70471;53.200;6.080;2023-06-19T03:54:31;4.00;;;3.08;;
76121;SDS011;70471;53.200;6.080;2023-06-19T03:59:24;6.50;;;3.42;;
76121;SDS011;70471;53.200;6.080;2023-06-19T04:04:15;5.03;;;3.10;;
76121;SDS011;70471;53.200;6.080;2023-06-19T04:09:07;4.05;;;2.55;;
76121;SDS011;70471;53.200;6.080;2023-06-19T04:13:58;3.70;;;2.53;;
76121;SDS011;70471;53.200;6.080;2023-06-19T04:18:51;3.40;;;2.13;;
76121;SDS011;70471;53.200;6.080;2023-06-19T04:23:42;3.33;;;1.75;;
76121;SDS011;70471;53.200;6.080;2023-06-19T04:28:34;3.15;;;1.88;;
76121;SDS011;70471;53.200;6.080;2023-06-19T04:33:25;2.78;;;1.67;;
76121;SDS011;70471;53.200;6.080;2023-06-19T04:38:18;2.05;;;1.38;;
76121;SDS011;70471;53.200;6.080;2023-06-19T04:43:13;2.67;;;1.30;;
76121;SDS011;70471;53.200;6.080;2023-06-19T04:48:05;2.75;;;1.95;;
76121;SDS011;70471;53.200;6.080;2023-06-19T04:52:56;1.83;;;1.30;;
76121;SDS011;70471;53.200;6.080;2023-06-19T04:57:49;2.05;;;1.25;;
76121;SDS011;70471;53.200;6.080;2023-06-19T05:02:40;2.85;;;1.65;;
76121;SDS011;70471;53.200;6.080;2023-06-19T05:07:33;2.67;;;1.70;;
76121;SDS011;70471;53.200;6.080;2023-06-19T05:12:25;2.20;;;1.60;;
76121;SDS011;70471;53.200;6.080;2023-06-19T05:17:18;2.65;;;1.70;;
76121;SDS011;70471;53.200;6.080;2023-06-19T05:22:09;1.77;;;1.40;;
76121;SDS011;70471;53.200;6.080;2023-06-19T05:27:00;1.85;;;1.40;;
76121;SDS011;70471;53.200;6.080;2023-06-19T05:31:52;2.38;;;1.70;;
76121;SDS011;70471;53.200;6.080;2023-06-19T05:36:45;2.47;;;1.70;;
76121;SDS011;70471;53.200;6.080;2023-06-19T05:41:37;2.70;;;1.95;;
76121;SDS011;70471;53.200;6.080;2023-06-19T05:46:28;3.60;;;2.10;;
76121;SDS011;70471;53.200;6.080;2023-06-19T05:51:20;3.17;;;2.00;;
76121;SDS011;70471;53.200;6.080;2023-06-19T05:56:12;3.92;;;2.92;;
76121;SDS011;70471;53.200;6.080;2023-06-19T06:01:04;3.15;;;2.22;;
76121;SDS011;70471;53.200;6.080;2023-06-19T06:05:57;6.88;;;3.20;;
76121;SDS011;70471;53.200;6.080;2023-06-19T06:10:52;6.70;;;4.22;;
76121;SDS011;70471;53.200;6.080;2023-06-19T06:15:45;6.82;;;4.38;;
76121;SDS011;70471;53.200;6.080;2023-06-19T06:20:37;7.18;;;5.00;;
76121;SDS011;70471;53.200;6.080;2023-06-19T06:25:28;15.35;;;9.20;;
76121;SDS011;70471;53.200;6.080;2023-06-19T06:30:20;14.45;;;9.25;;
76121;SDS011;70471;53.200;6.080;2023-06-19T06:35:12;11.10;;;6.90;;
76121;SDS011;70471;53.200;6.080;2023-06-19T06:40:05;17.30;;;9.13;;
76121;SDS011;70471;53.200;6.080;2023-06-19T06:44:59;15.80;;;8.70;;
76121;SDS011;70471;53.200;6.080;2023-06-19T06:49:51;13.77;;;8.93;;
76121;SDS011;70471;53.200;6.080;2023-06-19T06:54:44;14.18;;;8.75;;
76121;SDS011;70471;53.200;6.080;2023-06-19T06:59:35;19.80;;;11.90;;
76121;SDS011;70471;53.200;6.080;2023-06-19T07:04:26;20.55;;;10.50;;
76121;SDS011;70471;53.200;6.080;2023-06-19T07:09:18;24.50;;;11.85;;
76121;SDS011;70471;53.200;6.080;2023-06-19T07:14:12;24.75;;;12.80;;
76121;SDS011;70471;53.200;6.080;2023-06-19T07:19:04;18.40;;;9.45;;
76121;SDS011;70471;53.200;6.080;2023-06-19T07:23:55;16.73;;;8.15;;
76121;SDS011;70471;53.200;6.080;2023-06-19T07:28:48;11.57;;;6.20;;
76121;SDS011;70471;53.200;6.080;2023-06-19T07:33:40;8.43;;;5.32;;
76121;SDS011;70471;53.200;6.080;2023-06-19T07:38:32;7.15;;;4.90;;
76121;SDS011;70471;53.200;6.080;2023-06-19T07:43:23;7.15;;;4.53;;
76121;SDS011;70471;53.200;6.080;2023-06-19T07:48:15;6.72;;;4.55;;
76121;SDS011;70471;53.200;6.080;2023-06-19T07:53:08;5.60;;;4.07;;
76121;SDS011;70471;53.200;6.080;2023-06-19T07:57:59;6.22;;;4.25;;
76121;SDS011;70471;53.200;6.080;2023-06-19T08:02:51;5.57;;;3.97;;
76121;SDS011;70471;53.200;6.080;2023-06-19T08:07:42;7.90;;;4.07;;
76121;SDS011;70471;53.200;6.080;2023-06-19T08:12:35;7.35;;;3.85;;
76121;SDS011;70471;53.200;6.080;2023-06-19T08:17:27;6.13;;;4.05;;
76121;SDS011;70471;53.200;6.080;2023-06-19T08:22:18;5.30;;;3.47;;
76121;SDS011;70471;53.200;6.080;2023-06-19T08:27:09;4.72;;;3.35;;
76121;SDS011;70471;53.200;6.080;2023-06-19T08:32:02;4.85;;;3.25;;
76121;SDS011;70471;53.200;6.080;2023-06-19T08:36:54;3.35;;;2.30;;
76121;SDS011;70471;53.200;6.080;2023-06-19T08:41:46;5.40;;;3.03;;
76121;SDS011;70471;53.200;6.080;2023-06-19T08:46:38;5.13;;;2.78;;
76121;SDS011;70471;53.200;6.080;2023-06-19T08:51:32;4.18;;;2.83;;
76121;SDS011;70471;53.200;6.080;2023-06-19T08:56:24;15.65;;;4.07;;
76121;SDS011;70471;53.200;6.080;2023-06-19T09:01:16;6.68;;;2.50;;
76121;SDS011;70471;53.200;6.080;2023-06-19T09:06:09;3.50;;;2.45;;
76121;SDS011;70471;53.200;6.080;2023-06-19T09:11:02;3.90;;;2.60;;
76121;SDS011;70471;53.200;6.080;2023-06-19T09:15:58;3.55;;;2.20;;
76121;SDS011;70471;53.200;6.080;2023-06-19T09:20:52;3.35;;;2.50;;
76121;SDS011;70471;53.200;6.080;2023-06-19T09:25:45;3.42;;;2.30;;
76121;SDS011;70471;53.200;6.080;2023-06-19T09:30:38;2.47;;;1.95;;
76121;SDS011;70471;53.200;6.080;2023-06-19T09:35:41;2.35;;;2.10;;
76121;SDS011;70471;53.200;6.080;2023-06-19T09:40:33;3.95;;;2.40;;
76121;SDS011;70471;53.200;6.080;2023-06-19T09:45:25;2.60;;;2.30;;
76121;SDS011;70471;53.200;6.080;2023-06-19T09:50:22;2.85;;;2.10;;
76121;SDS011;70471;53.200;6.080;2023-06-19T09:55:17;2.65;;;1.95;;
76121;SDS011;70471;53.200;6.080;2023-06-19T10:00:10;3.35;;;2.28;;
76121;SDS011;70471;53.200;6.080;2023-06-19T10:05:06;4.15;;;2.92;;
76121;SDS011;70471;53.200;6.080;2023-06-19T10:10:03;6.60;;;3.47;;
76121;SDS011;70471;53.200;6.080;2023-06-19T10:14:56;4.72;;;2.92;;
76121;SDS011;70471;53.200;6.080;2023-06-19T10:19:51;5.10;;;3.08;;
76121;SDS011;70471;53.200;6.080;2023-06-19T10:24:48;6.30;;;3.40;;
76121;SDS011;70471;53.200;6.080;2023-06-19T10:29:41;7.30;;;4.32;;
76121;SDS011;70471;53.200;6.080;2023-06-19T10:34:33;5.45;;;3.42;;
76121;SDS011;70471;53.200;6.080;2023-06-19T10:39:25;5.38;;;4.38;;
76121;SDS011;70471;53.200;6.080;2023-06-19T10:44:16;10.68;;;6.22;;
76121;SDS011;70471;53.200;6.080;2023-06-19T10:49:10;10.98;;;6.40;;
76121;SDS011;70471;53.200;6.080;2023-06-19T10:54:03;10.38;;;6.18;;
76121;SDS011;70471;53.200;6.080;2023-06-19T10:58:58;11.05;;;7.18;;
76121;SDS011;70471;53.200;6.080;2023-06-19T11:03:51;10.27;;;6.38;;
76121;SDS011;70471;53.200;6.080;2023-06-19T11:08:50;11.27;;;6.18;;
76121;SDS011;70471;53.200;6.080;2023-06-19T11:13:42;7.63;;;5.68;;
76121;SDS011;70471;53.200;6.080;2023-06-19T11:18:34;7.05;;;4.47;;
76121;SDS011;70471;53.200;6.080;2023-06-19T11:23:25;9.27;;;4.43;;
76121;SDS011;70471;53.200;6.080;2023-06-19T11:28:19;5.22;;;3.95;;
76121;SDS011;70471;53.200;6.080;2023-06-19T11:33:16;5.00;;;3.78;;
76121;SDS011;70471;53.200;6.080;2023-06-19T11:38:15;6.35;;;3.47;;
76121;SDS011;70471;53.200;6.080;2023-06-19T11:43:08;5.63;;;3.72;;
76121;SDS011;70471;53.200;6.080;2023-06-19T11:48:01;3.95;;;3.55;;
76121;SDS011;70471;53.200;6.080;2023-06-19T11:52:56;4.30;;;3.13;;
76121;SDS011;70471;53.200;6.080;2023-06-19T11:57:50;5.65;;;3.88;;
76121;SDS011;70471;53.200;6.080;2023-06-19T12:02:41;7.05;;;4.60;;
76121;SDS011;70471;53.200;6.080;2023-06-19T12:07:34;6.57;;;4.90;;
76121;SDS011;70471;53.200;6.080;2023-06-19T12:12:25;6.65;;;4.88;;
76121;SDS011;70471;53.200;6.080;2023-06-19T12:17:17;6.45;;;4.10;;
76121;SDS011;70471;53.200;6.080;2023-06-19T12:22:08;11.93;;;7.20;;
76121;SDS011;70471;53.200;6.080;2023-06-19T12:27:01;9.52;;;6.15;;
76121;SDS011;70471;53.200;6.080;2023-06-19T12:31:58;10.38;;;5.45;;
76121;SDS011;70471;53.200;6.080;2023-06-19T12:36:50;8.82;;;5.45;;
76121;SDS011;70471;53.200;6.080;2023-06-19T12:41:42;8.82;;;5.78;;
76121;SDS011;70471;53.200;6.080;2023-06-19T12:46:35;9.82;;;5.63;;
76121;SDS011;70471;53.200;6.080;2023-06-19T12:51:26;6.15;;;4.22;;
76121;SDS011;70471;53.200;6.080;2023-06-19T12:56:18;9.82;;;5.00;;
76121;SDS011;70471;53.200;6.080;2023-06-19T13:01:09;7.43;;;5.00;;
76121;SDS011;70471;53.200;6.080;2023-06-19T13:06:02;6.40;;;4.15;;
76121;SDS011;70471;53.200;6.080;2023-06-19T13:10:54;7.28;;;4.72;;
76121;SDS011;70471;53.200;6.080;2023-06-19T13:15:45;7.72;;;4.57;;
76121;SDS011;70471;53.200;6.080;2023-06-19T13:20:37;6.65;;;4.95;;
76121;SDS011;70471;53.200;6.080;2023-06-19T13:25:30;9.57;;;5.32;;
76121;SDS011;70471;53.200;6.080;2023-06-19T13:30:22;6.78;;;4.25;;
76121;SDS011;70471;53.200;6.080;2023-06-19T13:35:14;8.43;;;5.30;;
76121;SDS011;70471;53.200;6.080;2023-06-19T13:40:06;7.35;;;4.60;;
76121;SDS011;70471;53.200;6.080;2023-06-19T13:44:59;7.18;;;4.78;;
76121;SDS011;70471;53.200;6.080;2023-06-19T13:49:51;8.55;;;4.85;;
76121;SDS011;70471;53.200;6.080;2023-06-19T13:54:42;8.63;;;5.70;;
76121;SDS011;70471;53.200;6.080;2023-06-19T13:59:34;5.85;;;4.13;;
76121;SDS011;70471;53.200;6.080;2023-06-19T14:04:27;6.10;;;4.15;;
76121;SDS011;70471;53.200;6.080;2023-06-19T14:09:19;7.38;;;4.00;;
76121;SDS011;70471;53.200;6.080;2023-06-19T14:14:10;5.38;;;4.00;;
76121;SDS011;70471;53.200;6.080;2023-06-19T14:19:02;5.43;;;3.67;;
76121;SDS011;70471;53.200;6.080;2023-06-19T14:23:54;5.75;;;4.20;;
76121;SDS011;70471;53.200;6.080;2023-06-19T14:28:46;7.50;;;3.95;;
76121;SDS011;70471;53.200;6.080;2023-06-19T14:33:37;4.78;;;3.33;;
76121;SDS011;70471;53.200;6.080;2023-06-19T14:38:29;6.13;;;3.70;;
76121;SDS011;70471;53.200;6.080;2023-06-19T14:43:24;5.68;;;3.53;;
76121;SDS011;70471;53.200;6.080;2023-06-19T14:48:16;5.30;;;4.30;;
76121;SDS011;70471;53.200;6.080;2023-06-19T14:53:07;6.90;;;3.35;;
76121;SDS011;70471;53.200;6.080;2023-06-19T14:57:59;5.15;;;3.25;;
76121;SDS011;70471;53.200;6.080;2023-06-19T15:02:52;4.10;;;2.85;;
76121;SDS011;70471;53.200;6.080;2023-06-19T15:07:43;4.93;;;2.97;;
76121;SDS011;70471;53.200;6.080;2023-06-19T15:12:35;4.80;;;2.95;;
76121;SDS011;70471;53.200;6.080;2023-06-19T15:17:27;4.50;;;2.88;;
76121;SDS011;70471;53.200;6.080;2023-06-19T15:22:20;8.38;;;2.95;;
76121;SDS011;70471;53.200;6.080;2023-06-19T15:27:11;4.40;;;2.92;;
76121;SDS011;70471;53.200;6.080;2023-06-19T15:32:03;3.70;;;2.65;;
76121;SDS011;70471;53.200;6.080;2023-06-19T15:36:55;4.45;;;2.90;;
76121;SDS011;70471;53.200;6.080;2023-06-19T15:41:48;5.25;;;3.05;;
76121;SDS011;70471;53.200;6.080;2023-06-19T15:46:40;5.43;;;2.92;;
76121;SDS011;70471;53.200;6.080;2023-06-19T15:51:32;3.47;;;2.58;;
76121;SDS011;70471;53.200;6.080;2023-06-19T15:56:23;5.43;;;2.55;;
76121;SDS011;70471;53.200;6.080;2023-06-19T16:01:16;4.70;;;2.78;;
76121;SDS011;70471;53.200;6.080;2023-06-19T16:06:08;5.50;;;2.70;;
76121;SDS011;70471;53.200;6.080;2023-06-19T16:10:59;5.43;;;3.03;;
76121;SDS011;70471;53.200;6.080;2023-06-19T16:15:53;5.47;;;2.60;;
76121;SDS011;70471;53.200;6.080;2023-06-19T16:20:45;3.35;;;2.28;;
76121;SDS011;70471;53.200;6.080;2023-06-19T16:25:37;3.20;;;2.53;;
76121;SDS011;70471;53.200;6.080;2023-06-19T16:30:28;4.15;;;2.50;;
76121;SDS011;70471;53.200;6.080;2023-06-19T16:35:20;3.08;;;2.20;;
76121;SDS011;70471;53.200;6.080;2023-06-19T16:40:14;2.05;;;1.85;;
76121;SDS011;70471;53.200;6.080;2023-06-19T16:45:06;3.13;;;2.22;;
76121;SDS011;70471;53.200;6.080;2023-06-19T16:49:58;3.35;;;2.10;;
76121;SDS011;70471;53.200;6.080;2023-06-19T16:54:49;2.95;;;1.67;;
76121;SDS011;70471;53.200;6.080;2023-06-19T16:59:42;2.75;;;1.75;;
76121;SDS011;70471;53.200;6.080;2023-06-19T17:04:34;3.13;;;1.90;;
76121;SDS011;70471;53.200;6.080;2023-06-19T17:09:27;2.35;;;1.75;;
76121;SDS011;70471;53.200;6.080;2023-06-19T17:14:18;2.28;;;2.03;;
76121;SDS011;70471;53.200;6.080;2023-06-19T17:19:11;2.70;;;1.48;;
76121;SDS011;70471;53.200;6.080;2023-06-19T17:24:03;2.55;;;1.42;;
76121;SDS011;70471;53.200;6.080;2023-06-19T17:28:55;1.75;;;1.50;;
76121;SDS011;70471;53.200;6.080;2023-06-19T17:33:46;2.22;;;1.25;;
76121;SDS011;70471;53.200;6.080;2023-06-19T17:38:39;2.00;;;1.60;;
76121;SDS011;70471;53.200;6.080;2023-06-19T17:43:30;1.80;;;1.50;;
76121;SDS011;70471;53.200;6.080;2023-06-19T17:48:22;2.08;;;1.50;;
76121;SDS011;70471;53.200;6.080;2023-06-19T17:53:13;2.58;;;1.67;;
76121;SDS011;70471;53.200;6.080;2023-06-19T17:58:06;1.88;;;1.58;;
76121;SDS011;70471;53.200;6.080;2023-06-19T18:02:58;2.88;;;1.67;;
76121;SDS011;70471;53.200;6.080;2023-06-19T18:07:49;2.00;;;1.30;;
76121;SDS011;70471;53.200;6.080;2023-06-19T18:12:40;2.55;;;1.45;;
76121;SDS011;70471;53.200;6.080;2023-06-19T18:17:33;2.08;;;1.48;;
76121;SDS011;70471;53.200;6.080;2023-06-19T18:22:25;1.67;;;1.23;;
76121;SDS011;70471;53.200;6.080;2023-06-19T18:27:16;2.30;;;1.30;;
76121;SDS011;70471;53.200;6.080;2023-06-19T18:32:09;1.77;;;1.17;;
76121;SDS011;70471;53.200;6.080;2023-06-19T18:37:02;1.83;;;1.42;;
76121;SDS011;70471;53.200;6.080;2023-06-19T18:41:54;1.50;;;1.20;;
76121;SDS011;70471;53.200;6.080;2023-06-19T18:46:45;2.58;;;1.33;;
76121;SDS011;70471;53.200;6.080;2023-06-19T18:51:37;1.40;;;1.23;;
76121;SDS011;70471;53.200;6.080;2023-06-19T18:56:29;2.03;;;1.30;;
76121;SDS011;70471;53.200;6.080;2023-06-19T19:01:21;2.13;;;1.38;;
76121;SDS011;70471;53.200;6.080;2023-06-19T19:06:12;2.05;;;1.60;;
76121;SDS011;70471;53.200;6.080;2023-06-19T19:11:05;1.90;;;1.42;;
76121;SDS011;70471;53.200;6.080;2023-06-19T19:15:57;2.33;;;1.42;;
76121;SDS011;70471;53.200;6.080;2023-06-19T19:20:49;2.15;;;1.25;;
76121;SDS011;70471;53.200;6.080;2023-06-19T19:25:40;2.58;;;1.45;;
76121;SDS011;70471;53.200;6.080;2023-06-19T19:30:32;3.58;;;1.30;;
76121;SDS011;70471;53.200;6.080;2023-06-19T19:35:25;1.75;;;1.20;;
76121;SDS011;70471;53.200;6.080;2023-06-19T19:40:16;1.58;;;1.30;;
76121;SDS011;70471;53.200;6.080;2023-06-19T19:45:08;2.08;;;1.42;;
76121;SDS011;70471;53.200;6.080;2023-06-19T19:50:00;1.90;;;1.45;;
76121;SDS011;70471;53.200;6.080;2023-06-19T19:54:53;2.70;;;1.40;;
76121;SDS011;70471;53.200;6.080;2023-06-19T19:59:44;3.10;;;1.63;;
76121;SDS011;70471;53.200;6.080;2023-06-19T20:04:36;3.28;;;1.55;;
76121;SDS011;70471;53.200;6.080;2023-06-19T20:09:27;1.42;;;1.13;;
76121;SDS011;70471;53.200;6.080;2023-06-19T20:14:21;1.73;;;1.30;;
76121;SDS011;70471;53.200;6.080;2023-06-19T20:19:13;2.15;;;1.58;;
76121;SDS011;70471;53.200;6.080;2023-06-19T20:24:05;2.55;;;1.65;;
76121;SDS011;70471;53.200;6.080;2023-06-19T20:28:57;3.70;;;1.20;;
76121;SDS011;70471;53.200;6.080;2023-06-19T20:33:50;3.08;;;1.63;;
76121;SDS011;70471;53.200;6.080;2023-06-19T20:38:42;2.10;;;1.73;;
76121;SDS011;70471;53.200;6.080;2023-06-19T20:43:35;3.65;;;1.70;;
76121;SDS011;70471;53.200;6.080;2023-06-19T20:48:27;4.28;;;2.15;;
76121;SDS011;70471;53.200;6.080;2023-06-19T20:53:20;2.60;;;1.58;;
76121;SDS011;70471;53.200;6.080;2023-06-19T20:58:12;2.53;;;1.90;;
76121;SDS011;70471;53.200;6.080;2023-06-19T21:03:03;2.88;;;2.03;;
76121;SDS011;70471;53.200;6.080;2023-06-19T21:07:56;2.75;;;2.22;;
76121;SDS011;70471;53.200;6.080;2023-06-19T21:12:48;4.63;;;2.03;;
76121;SDS011;70471;53.200;6.080;2023-06-19T21:17:40;3.60;;;2.28;;
76121;SDS011;70471;53.200;6.080;2023-06-19T21:22:32;3.42;;;2.03;;
76121;SDS011;70471;53.200;6.080;2023-06-19T21:27:23;3.50;;;1.83;;
76121;SDS011;70471;53.200;6.080;2023-06-19T21:32:16;3.92;;;2.22;;
76121;SDS011;70471;53.200;6.080;2023-06-19T21:37:08;4.18;;;2.38;;
76121;SDS011;70471;53.200;6.080;2023-06-19T21:41:59;3.58;;;2.78;;
76121;SDS011;70471;53.200;6.080;2023-06-19T21:46:51;4.68;;;2.40;;
76121;SDS011;70471;53.200;6.080;2023-06-19T21:51:44;3.53;;;2.53;;
76121;SDS011;70471;53.200;6.080;2023-06-19T21:56:35;4.07;;;2.15;;
76121;SDS011;70471;53.200;6.080;2023-06-19T22:01:27;2.85;;;2.10;;
76121;SDS011;70471;53.200;6.080;2023-06-19T22:06:18;3.50;;;2.03;;
76121;SDS011;70471;53.200;6.080;2023-06-19T22:11:11;2.67;;;1.90;;
76121;SDS011;70471;53.200;6.080;2023-06-19T22:16:02;2.35;;;1.83;;
76121;SDS011;70471;53.200;6.080;2023-06-19T22:20:54;2.20;;;1.65;;
76121;SDS011;70471;53.200;6.080;2023-06-19T22:25:45;3.83;;;2.42;;
76121;SDS011;70471;53.200;6.080;2023-06-19T22:30:38;2.45;;;1.92;;
76121;SDS011;70471;53.200;6.080;2023-06-19T22:35:30;4.68;;;2.17;;
76121;SDS011;70471;53.200;6.080;2023-06-19T22:40:21;2.92;;;2.60;;
76121;SDS011;70471;53.200;6.080;2023-06-19T22:45:13;4.03;;;2.65;;
76121;SDS011;70471;53.200;6.080;2023-06-19T22:50:06;4.03;;;2.42;;
76121;SDS011;70471;53.200;6.080;2023-06-19T22:54:59;3.10;;;2.42;;
76121;SDS011;70471;53.200;6.080;2023-06-19T22:59:50;4.50;;;2.72;;
76121;SDS011;70471;53.200;6.080;2023-06-19T23:04:42;4.60;;;3.03;;
76121;SDS011;70471;53.200;6.080;2023-06-19T23:09:35;4.75;;;3.15;;
76121;SDS011;70471;53.200;6.080;2023-06-19T23:14:26;3.85;;;2.63;;
76121;SDS011;70471;53.200;6.080;2023-06-19T23:19:18;4.72;;;2.78;;
76121;SDS011;70471;53.200;6.080;2023-06-19T23:24:10;4.30;;;2.97;;
76121;SDS011;70471;53.200;6.080;2023-06-19T23:29:03;4.40;;;2.85;;
76121;SDS011;70471;53.200;6.080;2023-06-19T23:33:57;3.70;;;2.67;;
76121;SDS011;70471;53.200;6.080;2023-06-19T23:38:50;4.07;;;2.65;;
76121;SDS011;70471;53.200;6.080;2023-06-19T23:43:41;4.07;;;2.72;;
76121;SDS011;70471;53.200;6.080;2023-06-19T23:48:34;5.43;;;2.85;;
76121;SDS011;70471;53.200;6.080;2023-06-19T23:53:25;4.68;;;2.60;;
76121;SDS011;70471;53.200;6.080;2023-06-19T23:58:17;4.93;;;3.10;;
